Airport View

Enter AWOS ICAO identifier for current METAR.

ex. KFNL

KAPY 031655Z AUTO 17006KT 10SM SCT035 34/23 A2999 RMK AO2 T03380228 TSNO

3 Jul 2020 17:20

Frequency: 118.225

Phone: 956-765-4069

Other Area AWOS: MMNL - KHBV - KLRD - KBKS

TAF AMD MMNL 031328Z 0313/0406 15008KT 6SM HZ OVC010 FM031500 15010KT P6SM BKN020 FM031800 16015KT P6SM SCT020 SCT200 FM040300 14008KT P6SM SKC